Time;durP1;ratioP1;P1;durP2;ratioP2;P2;SDS_P1;SDS_P2;PMS_P1;PMS_P2;Temp;Humidity;BMP_temperature;BMP_pressure;BME280_temperature;BME280_humidity;BME280_pressure;Samples;Min_cycle;Max_cycle;Signal;HPM_P1;HPM_P2
2021/05/10 00:01:19;;;;;;;2.90;2.07;;;19.50;1.00;;;;;;5123909;28;20524;-65
2021/05/10 00:03:46;;;;;;;3.00;1.90;;;19.50;1.00;;;;;;5121972;28;20459;-64
2021/05/10 00:06:14;;;;;;;2.60;2.10;;;19.50;1.00;;;;;;5121190;28;20932;-66
2021/05/10 00:08:40;;;;;;;2.17;1.97;;;19.50;1.00;;;;;;5124163;28;20516;-64
2021/05/10 00:11:07;;;;;;;2.10;1.90;;;19.40;1.00;;;;;;5122661;28;20956;-65
2021/05/10 00:13:34;;;;;;;2.07;1.87;;;19.40;1.00;;;;;;5123701;28;20467;-65
2021/05/10 00:16:00;;;;;;;2.93;2.00;;;19.40;1.00;;;;;;5124508;28;20799;-65
2021/05/10 00:18:28;;;;;;;2.47;2.00;;;19.40;1.00;;;;;;5123398;28;20456;-65
2021/05/10 00:20:55;;;;;;;2.20;1.90;;;19.30;1.00;;;;;;5127945;28;20483;-65
2021/05/10 00:23:21;;;;;;;2.40;2.20;;;19.30;1.00;;;;;;5129748;28;20516;-65
2021/05/10 00:25:47;;;;;;;3.90;1.93;;;19.30;1.00;;;;;;5128221;28;20460;-65
2021/05/10 00:28:14;;;;;;;3.10;2.30;;;19.20;1.00;;;;;;5128000;28;20472;-65
2021/05/10 00:30:40;;;;;;;2.30;2.10;;;19.20;1.00;;;;;;5129719;27;20484;-64
2021/05/10 00:33:07;;;;;;;5.60;2.20;;;19.10;1.00;;;;;;5127484;28;20532;-65
2021/05/10 00:35:34;;;;;;;4.20;1.90;;;19.10;1.00;;;;;;5126741;28;20452;-65
2021/05/10 00:38:01;;;;;;;4.93;1.93;;;19.10;1.00;;;;;;5128956;27;20486;-65
2021/05/10 00:40:30;;;;;;;2.37;2.17;;;19.10;1.00;;;;;;5126914;28;20448;-65
2021/05/10 00:42:56;;;;;;;4.10;2.30;;;19.00;1.00;;;;;;5122371;28;20794;-65
2021/05/10 00:45:24;;;;;;;3.10;2.17;;;18.90;1.00;;;;;;5119068;28;20452;-64
2021/05/10 00:47:50;;;;;;;1.93;1.73;;;18.80;1.00;;;;;;5120716;28;20452;-64
2021/05/10 00:50:18;;;;;;;2.10;1.87;;;18.80;1.00;;;;;;5119709;28;20963;-64
2021/05/10 00:52:44;;;;;;;3.53;2.20;;;18.80;1.00;;;;;;5119488;28;20472;-65
2021/05/10 00:55:14;;;;;;;2.47;2.27;;;18.80;1.00;;;;;;5119835;28;20456;-65
2021/05/10 00:57:45;;;;;;;2.27;2.07;;;18.80;1.00;;;;;;5119629;28;20452;-65
2021/05/10 01:00:13;;;;;;;2.40;1.90;;;18.80;1.00;;;;;;5120683;28;20502;-64
2021/05/10 01:02:43;;;;;;;2.00;1.80;;;18.80;1.00;;;;;;5119329;28;20452;-65
2021/05/10 01:05:10;;;;;;;2.30;2.10;;;18.70;1.00;;;;;;5118885;28;20457;-65
2021/05/10 01:07:37;;;;;;;1.83;1.70;;;18.70;1.00;;;;;;5119255;28;20460;-65
2021/05/10 01:10:09;;;;;;;2.70;1.87;;;18.70;1.00;;;;;;5119283;28;20955;-65
2021/05/10 01:12:37;;;;;;;4.53;2.40;;;18.70;1.00;;;;;;5120477;28;20497;-65
2021/05/10 01:15:06;;;;;;;2.00;1.90;;;18.60;1.00;;;;;;5121312;27;20516;-65
2021/05/10 01:17:34;;;;;;;2.20;2.00;;;18.60;1.00;;;;;;5120223;28;20456;-65
2021/05/10 01:20:06;;;;;;;2.33;1.97;;;18.60;1.00;;;;;;5128185;27;20448;-66
2021/05/10 01:22:39;;;;;;;3.30;2.27;;;18.60;1.00;;;;;;5129261;28;20452;-66
2021/05/10 01:25:06;;;;;;;2.23;2.00;;;18.50;1.00;;;;;;5129073;28;20451;-66
2021/05/10 01:27:33;;;;;;;5.07;2.20;;;18.50;1.00;;;;;;5128405;28;20511;-67
2021/05/10 01:30:01;;;;;;;2.00;1.80;;;18.50;1.00;;;;;;5128346;28;20476;-67
2021/05/10 01:32:27;;;;;;;6.40;2.10;;;18.50;1.00;;;;;;5127211;28;20440;-67
2021/05/10 01:34:54;;;;;;;1.80;1.70;;;18.50;1.00;;;;;;5127399;28;20463;-66
2021/05/10 01:37:20;;;;;;;2.10;1.90;;;18.40;1.00;;;;;;5127121;28;20548;-67
2021/05/10 01:39:47;;;;;;;2.93;2.30;;;18.40;1.00;;;;;;5128389;28;20475;-67
2021/05/10 01:42:13;;;;;;;2.33;2.13;;;18.30;1.00;;;;;;5128594;28;20459;-67
2021/05/10 01:44:39;;;;;;;3.13;2.00;;;18.30;1.00;;;;;;5127479;28;20448;-67
2021/05/10 01:47:06;;;;;;;3.27;1.87;;;18.30;1.00;;;;;;5126646;28;20461;-67
2021/05/10 01:49:32;;;;;;;4.90;1.90;;;18.30;1.00;;;;;;5127792;28;20527;-67
2021/05/10 01:52:00;;;;;;;2.27;2.07;;;18.30;1.00;;;;;;5128020;28;20461;-67
2021/05/10 01:54:30;;;;;;;3.33;2.10;;;18.30;1.00;;;;;;5128152;28;20448;-67
2021/05/10 01:56:57;;;;;;;2.00;1.80;;;18.20;1.00;;;;;;5128399;28;20448;-67
2021/05/10 01:59:23;;;;;;;2.80;2.27;;;18.20;1.00;;;;;;5129173;28;20453;-67
2021/05/10 02:01:50;;;;;;;3.50;1.80;;;18.10;1.00;;;;;;5127526;28;20452;-67
2021/05/10 02:04:16;;;;;;;2.37;2.17;;;18.10;1.00;;;;;;5128136;28;20456;-67
2021/05/10 02:06:42;;;;;;;4.17;1.80;;;18.00;1.00;;;;;;5128170;28;20950;-67
2021/05/10 02:09:08;;;;;;;2.80;1.67;;;18.00;1.00;;;;;;5128016;28;20452;-67
2021/05/10 02:11:34;;;;;;;3.47;1.90;;;18.00;1.00;;;;;;5128063;28;20444;-66
2021/05/10 02:14:02;;;;;;;2.90;2.03;;;18.00;1.00;;;;;;5128267;27;20449;-67
2021/05/10 02:16:28;;;;;;;2.17;1.80;;;17.90;1.00;;;;;;5128712;28;20478;-67
2021/05/10 02:18:56;;;;;;;2.50;2.00;;;17.90;1.00;;;;;;5125390;28;20448;-65
2021/05/10 02:21:29;;;;;;;2.47;1.90;;;17.90;1.00;;;;;;5118020;28;20786;-65
2021/05/10 02:23:55;;;;;;;2.00;1.80;;;17.90;1.00;;;;;;5117453;28;20447;-64
2021/05/10 02:26:21;;;;;;;2.20;2.00;;;17.90;1.00;;;;;;5118064;28;20901;-64
2021/05/10 02:28:48;;;;;;;2.30;2.10;;;17.80;1.00;;;;;;5118993;28;20584;-64
2021/05/10 02:31:15;;;;;;;2.43;2.07;;;17.80;1.00;;;;;;5121521;28;20824;-65
2021/05/10 02:33:41;;;;;;;4.57;2.43;;;17.70;1.00;;;;;;5119399;28;20452;-65
2021/05/10 02:36:08;;;;;;;1.93;1.73;;;17.70;1.00;;;;;;5117830;28;20456;-65
2021/05/10 02:38:34;;;;;;;4.90;1.97;;;17.60;1.00;;;;;;5117689;28;20485;-65
2021/05/10 02:41:00;;;;;;;3.90;2.10;;;17.50;1.00;;;;;;5117121;28;20452;-65
2021/05/10 02:43:26;;;;;;;2.10;1.90;;;17.50;1.00;;;;;;5116907;28;20467;-65
2021/05/10 02:45:53;;;;;;;4.00;1.80;;;17.40;1.00;;;;;;5117101;28;20462;-65
2021/05/10 02:48:21;;;;;;;2.20;2.00;;;17.40;1.00;;;;;;5117708;28;20452;-65
2021/05/10 02:50:47;;;;;;;2.07;1.87;;;17.40;1.00;;;;;;5117069;28;20498;-65
2021/05/10 02:53:15;;;;;;;2.97;1.90;;;17.40;1.00;;;;;;5117532;28;20452;-65
2021/05/10 02:55:41;;;;;;;3.10;1.77;;;17.30;1.00;;;;;;5117461;28;20521;-65
2021/05/10 02:58:07;;;;;;;2.43;1.83;;;17.30;1.00;;;;;;5117015;28;20483;-65
2021/05/10 03:00:33;;;;;;;5.00;2.33;;;17.30;1.00;;;;;;5116934;28;20460;-65
2021/05/10 03:03:00;;;;;;;2.60;2.40;;;17.30;1.00;;;;;;5116465;28;20456;-65
2021/05/10 03:05:28;;;;;;;4.90;2.70;;;17.20;1.00;;;;;;5118238;28;20551;-65
2021/05/10 03:07:55;;;;;;;3.67;2.60;;;17.20;1.00;;;;;;5121948;28;20456;-65
2021/05/10 03:10:24;;;;;;;6.07;1.90;;;17.10;1.00;;;;;;5116715;28;20476;-65
2021/05/10 03:12:51;;;;;;;5.13;2.10;;;17.10;1.00;;;;;;5117508;28;20513;-65
2021/05/10 03:15:18;;;;;;;2.10;2.00;;;17.10;1.00;;;;;;5117420;28;20457;-65
2021/05/10 03:17:45;;;;;;;5.40;2.20;;;17.00;1.00;;;;;;5117146;28;20917;-65
2021/05/10 03:20:14;;;;;;;3.50;1.90;;;17.00;1.00;;;;;;5117599;28;20448;-66
2021/05/10 03:22:41;;;;;;;2.70;2.50;;;17.00;1.00;;;;;;5117429;28;20494;-65
2021/05/10 03:25:09;;;;;;;8.43;2.30;;;17.00;1.00;;;;;;5117370;28;20491;-65
2021/05/10 03:27:40;;;;;;;2.27;1.90;;;16.90;1.00;;;;;;5117445;28;20517;-65
2021/05/10 03:30:09;;;;;;;5.73;2.30;;;16.90;1.00;;;;;;5117060;28;20963;-65
2021/05/10 03:32:35;;;;;;;5.07;2.07;;;16.90;1.00;;;;;;5117376;28;20460;-65
2021/05/10 03:35:02;;;;;;;2.90;1.73;;;16.90;1.00;;;;;;5117488;28;20547;-66
2021/05/10 03:37:28;;;;;;;2.63;2.30;;;16.90;1.00;;;;;;5117756;28;20735;-65
2021/05/10 03:39:55;;;;;;;2.90;1.83;;;16.90;1.00;;;;;;5117672;28;20448;-65
2021/05/10 03:42:21;;;;;;;2.47;1.80;;;16.90;1.00;;;;;;5117347;28;20773;-65
2021/05/10 03:44:48;;;;;;;2.47;1.80;;;16.80;1.00;;;;;;5116652;28;20935;-65
2021/05/10 03:47:15;;;;;;;2.00;1.80;;;16.80;1.00;;;;;;5116861;28;20501;-65
2021/05/10 03:49:41;;;;;;;2.87;1.97;;;16.90;1.00;;;;;;5117713;28;20480;-65
2021/05/10 03:52:07;;;;;;;10.23;1.87;;;16.90;1.00;;;;;;5116801;28;20463;-65
2021/05/10 03:54:36;;;;;;;4.07;2.03;;;16.90;1.00;;;;;;5117174;28;20469;-65
2021/05/10 03:57:04;;;;;;;3.03;2.13;;;16.90;1.00;;;;;;5121233;28;20521;-64
2021/05/10 03:59:30;;;;;;;2.00;1.83;;;16.90;1.00;;;;;;5120920;28;20459;-64
2021/05/10 04:01:59;;;;;;;2.83;1.93;;;16.90;1.00;;;;;;5120406;28;20448;-64
2021/05/10 04:04:28;;;;;;;2.03;1.87;;;16.90;1.00;;;;;;5120359;28;20467;-64
2021/05/10 04:07:14;;;;;;;3.40;1.83;;;16.90;1.00;;;;;;5121423;27;20456;-65
2021/05/10 04:09:49;;;;;;;1.93;1.70;;;16.90;1.00;;;;;;5120716;28;20460;-65
2021/05/10 04:15:00;;;;;;;5.83;3.60;;;16.90;1.00;;;;;;5120329;28;20431;-64
2021/05/10 04:17:27;;;;;;;2.30;2.10;;;16.80;1.00;;;;;;5120665;28;20456;-64
2021/05/10 04:19:53;;;;;;;2.77;2.10;;;16.80;1.00;;;;;;5120154;27;20837;-64
2021/05/10 04:22:19;;;;;;;2.10;1.60;;;16.90;1.00;;;;;;5119747;28;20933;-64
2021/05/10 04:24:45;;;;;;;1.93;1.53;;;16.80;1.00;;;;;;5120847;28;20463;-64
2021/05/10 04:27:11;;;;;;;2.03;1.73;;;16.80;1.00;;;;;;5121915;28;20981;-66
2021/05/10 04:29:38;;;;;;;2.23;2.00;;;16.80;1.00;;;;;;5121613;28;20499;-65
2021/05/10 04:32:05;;;;;;;2.83;1.80;;;16.80;1.00;;;;;;5121771;28;20480;-65
2021/05/10 04:34:32;;;;;;;3.37;2.10;;;16.90;1.00;;;;;;5122471;28;20766;-65
2021/05/10 04:37:00;;;;;;;1.63;1.53;;;16.90;1.00;;;;;;5121709;28;20452;-65
2021/05/10 04:39:26;;;;;;;3.20;2.30;;;16.90;1.00;;;;;;5121449;28;20482;-65
2021/05/10 04:41:52;;;;;;;2.23;1.77;;;17.00;1.00;;;;;;5121929;28;20491;-65
2021/05/10 04:44:18;;;;;;;3.13;1.70;;;17.00;1.00;;;;;;5120443;28;20471;-65
2021/05/10 04:46:46;;;;;;;2.00;1.80;;;17.00;1.00;;;;;;5120719;28;20814;-65
2021/05/10 04:49:12;;;;;;;4.90;1.93;;;17.00;1.00;;;;;;5119903;28;20777;-65
2021/05/10 04:51:38;;;;;;;5.40;1.60;;;17.00;1.00;;;;;;5121067;27;20464;-65
2021/05/10 04:54:05;;;;;;;3.03;1.80;;;17.00;1.00;;;;;;5124425;28;20460;-66
2021/05/10 04:56:32;;;;;;;7.53;2.07;;;17.00;1.00;;;;;;5128974;28;20513;-68
2021/05/10 04:58:58;;;;;;;2.80;1.60;;;17.10;1.00;;;;;;5128315;28;20463;-67
2021/05/10 05:01:24;;;;;;;4.63;1.80;;;17.10;1.00;;;;;;5128594;28;20444;-67
2021/05/10 05:03:51;;;;;;;6.67;2.40;;;17.10;1.00;;;;;;5129052;28;20456;-67
2021/05/10 05:06:17;;;;;;;2.63;1.87;;;17.20;1.00;;;;;;5129112;28;20460;-67
2021/05/10 05:08:44;;;;;;;3.70;1.90;;;17.20;1.00;;;;;;5129956;28;20452;-68
2021/05/10 05:11:10;;;;;;;1.90;1.70;;;17.20;1.00;;;;;;5130034;28;20487;-66
2021/05/10 05:13:36;;;;;;;2.53;1.80;;;17.20;1.00;;;;;;5129526;28;20486;-67
2021/05/10 05:16:03;;;;;;;2.07;1.90;;;17.30;1.00;;;;;;5130220;28;20456;-68
2021/05/10 05:18:29;;;;;;;2.87;2.20;;;17.30;1.00;;;;;;5129912;28;20463;-67
2021/05/10 05:20:56;;;;;;;4.33;1.90;;;17.30;1.00;;;;;;5130123;28;20448;-66
2021/05/10 05:23:25;;;;;;;2.63;1.60;;;17.40;1.00;;;;;;5129227;28;20448;-68
2021/05/10 05:25:58;;;;;;;2.37;1.80;;;17.40;1.00;;;;;;5129239;28;20453;-67
2021/05/10 05:28:26;;;;;;;2.17;1.97;;;17.40;1.00;;;;;;5128777;28;20454;-67
2021/05/10 05:30:53;;;;;;;4.03;2.13;;;17.50;1.00;;;;;;5128677;28;20805;-68
2021/05/10 05:33:20;;;;;;;3.40;1.70;;;17.50;1.00;;;;;;5128285;28;20456;-68
2021/05/10 05:35:46;;;;;;;4.50;1.90;;;17.50;1.00;;;;;;5129097;28;20445;-67
2021/05/10 05:38:13;;;;;;;6.63;2.17;;;17.60;1.00;;;;;;5128486;27;20543;-69
2021/05/10 05:40:41;;;;;;;2.40;1.80;;;17.60;1.00;;;;;;5129264;27;20448;-68
2021/05/10 05:43:08;;;;;;;4.43;2.00;;;17.70;1.00;;;;;;5128918;28;20463;-67
2021/05/10 05:45:35;;;;;;;2.23;1.90;;;17.80;1.00;;;;;;5127763;28;20452;-68
2021/05/10 05:48:03;;;;;;;2.20;2.00;;;17.70;1.00;;;;;;5127938;28;20525;-68
2021/05/10 05:50:29;;;;;;;2.30;1.80;;;17.80;1.00;;;;;;5130457;28;20476;-67
2021/05/10 05:52:55;;;;;;;5.10;1.70;;;17.90;1.00;;;;;;5129930;28;20490;-67
2021/05/10 05:55:22;;;;;;;3.53;1.80;;;18.00;1.00;;;;;;5129251;28;20468;-68
2021/05/10 05:57:49;;;;;;;4.80;2.07;;;18.00;1.00;;;;;;5129378;28;20460;-67
2021/05/10 06:00:16;;;;;;;2.10;1.70;;;18.00;1.00;;;;;;5130577;28;20497;-68
2021/05/10 06:02:42;;;;;;;7.07;1.90;;;18.10;1.00;;;;;;5131009;28;20448;-67
2021/05/10 06:05:09;;;;;;;5.60;1.80;;;18.20;1.00;;;;;;5129755;28;20456;-68
2021/05/10 06:07:40;;;;;;;4.80;1.90;;;18.20;1.00;;;;;;5129458;28;20513;-67
2021/05/10 06:10:07;;;;;;;3.20;1.93;;;18.30;1.00;;;;;;5129876;28;20480;-67
2021/05/10 06:12:35;;;;;;;1.70;1.60;;;18.40;1.00;;;;;;5129533;28;20465;-68
2021/05/10 06:15:01;;;;;;;2.33;1.90;;;18.40;1.00;;;;;;5129491;28;20456;-68
2021/05/10 06:17:27;;;;;;;3.83;2.00;;;18.50;1.00;;;;;;5129329;28;20452;-67
2021/05/10 06:19:54;;;;;;;2.20;1.70;;;18.60;1.00;;;;;;5128439;28;20453;-68
2021/05/10 06:22:21;;;;;;;5.53;2.10;;;18.60;1.00;;;;;;5128195;28;20460;-67
2021/05/10 06:24:47;;;;;;;2.93;2.07;;;18.70;1.00;;;;;;5129118;28;20451;-67
2021/05/10 06:27:17;;;;;;;3.43;2.07;;;18.60;1.00;;;;;;5128903;28;20460;-68
2021/05/10 06:29:44;;;;;;;4.23;2.13;;;18.60;1.00;;;;;;5120762;28;20476;-65
2021/05/10 06:32:10;;;;;;;3.37;2.00;;;18.70;1.00;;;;;;5120026;28;20481;-65
2021/05/10 06:34:37;;;;;;;3.70;1.73;;;18.80;1.00;;;;;;5119993;28;20459;-65
2021/05/10 06:37:03;;;;;;;3.20;1.90;;;18.80;1.00;;;;;;5118938;28;20463;-65
2021/05/10 06:39:29;;;;;;;4.97;2.33;;;18.80;1.00;;;;;;5120873;28;20449;-65
2021/05/10 06:41:55;;;;;;;3.63;2.30;;;18.90;1.00;;;;;;5120257;28;20924;-65
2021/05/10 06:44:21;;;;;;;3.30;2.00;;;18.90;1.00;;;;;;5120880;28;20464;-65
2021/05/10 06:46:48;;;;;;;2.30;2.00;;;18.90;1.00;;;;;;5120917;28;20757;-65
2021/05/10 06:49:15;;;;;;;5.30;2.50;;;19.00;1.00;;;;;;5119985;28;20509;-66
2021/05/10 06:51:41;;;;;;;2.00;1.63;;;19.00;1.00;;;;;;5120266;28;20541;-66
2021/05/10 06:54:08;;;;;;;2.30;1.93;;;19.10;1.00;;;;;;5120548;28;20452;-65
2021/05/10 06:56:34;;;;;;;3.30;1.63;;;19.20;1.00;;;;;;5121120;28;20850;-65
2021/05/10 06:59:00;;;;;;;3.30;1.87;;;19.30;1.00;;;;;;5120797;28;20547;-65
2021/05/10 07:01:27;;;;;;;2.13;1.93;;;19.40;1.00;;;;;;5121088;28;20448;-65
2021/05/10 07:03:54;;;;;;;3.60;2.10;;;19.50;1.00;;;;;;5121228;28;20463;-65
2021/05/10 07:06:20;;;;;;;1.60;1.40;;;19.60;1.00;;;;;;5120747;28;20456;-65
2021/05/10 07:08:47;;;;;;;3.60;1.80;;;19.70;1.00;;;;;;5119741;28;20468;-65
2021/05/10 07:11:13;;;;;;;1.90;1.70;;;19.70;1.00;;;;;;5119255;28;20507;-64
2021/05/10 07:13:39;;;;;;;3.40;1.70;;;19.70;1.00;;;;;;5120521;28;20456;-65
2021/05/10 07:16:07;;;;;;;2.13;1.70;;;19.90;1.00;;;;;;5120773;28;20449;-67
2021/05/10 07:18:34;;;;;;;3.43;2.00;;;19.90;1.00;;;;;;5121412;28;20476;-65
2021/05/10 07:21:01;;;;;;;5.03;1.90;;;20.10;1.00;;;;;;5120799;28;20540;-66
2021/05/10 07:23:28;;;;;;;2.70;1.83;;;20.10;1.00;;;;;;5120908;28;20527;-65
2021/05/10 07:25:54;;;;;;;3.30;2.10;;;20.20;1.00;;;;;;5121014;28;20780;-66
2021/05/10 07:28:21;;;;;;;3.20;1.60;;;20.20;1.00;;;;;;5119892;28;20772;-65
2021/05/10 07:30:49;;;;;;;5.03;1.60;;;20.20;1.00;;;;;;5122444;28;20490;-66
2021/05/10 07:33:16;;;;;;;1.90;1.70;;;20.20;1.00;;;;;;5124547;28;20467;-66
2021/05/10 07:35:42;;;;;;;2.03;1.63;;;20.20;1.00;;;;;;5125237;28;20460;-65
2021/05/10 07:38:10;;;;;;;2.10;1.90;;;20.20;1.00;;;;;;5124327;28;20744;-65
2021/05/10 07:40:36;;;;;;;3.00;1.80;;;20.20;1.00;;;;;;5124402;28;20452;-66
2021/05/10 07:43:03;;;;;;;4.43;2.40;;;20.30;1.00;;;;;;5124492;28;20519;-65
2021/05/10 07:45:29;;;;;;;7.50;2.10;;;20.30;1.00;;;;;;5124324;28;20484;-65
2021/05/10 07:47:56;;;;;;;4.60;2.07;;;20.40;1.00;;;;;;5123561;28;20452;-65
2021/05/10 07:50:23;;;;;;;4.50;2.20;;;20.40;1.00;;;;;;5122756;28;20480;-65
2021/05/10 07:52:49;;;;;;;2.40;1.60;;;20.50;1.00;;;;;;5122498;28;20510;-65
2021/05/10 07:55:17;;;;;;;2.60;1.90;;;20.50;1.00;;;;;;5123267;28;20521;-65
2021/05/10 07:57:47;;;;;;;2.50;1.97;;;20.60;1.00;;;;;;5122938;28;20467;-65
2021/05/10 08:00:16;;;;;;;2.00;1.80;;;20.60;1.00;;;;;;5123601;28;20448;-66
2021/05/10 08:02:43;;;;;;;2.10;1.83;;;20.60;1.00;;;;;;5123873;28;20551;-65
2021/05/10 08:05:10;;;;;;;3.93;1.97;;;20.70;1.00;;;;;;5124038;28;20509;-66
2021/05/10 08:07:37;;;;;;;2.37;1.80;;;20.60;1.00;;;;;;5123048;28;20452;-66
2021/05/10 08:10:04;;;;;;;2.30;2.10;;;20.70;1.00;;;;;;5124749;28;20476;-66
2021/05/10 08:12:31;;;;;;;3.23;1.90;;;20.60;1.00;;;;;;5124319;28;20943;-66
2021/05/10 08:14:58;;;;;;;2.50;1.87;;;20.60;1.00;;;;;;5123554;28;20452;-65
2021/05/10 08:17:24;;;;;;;2.90;2.33;;;20.70;1.00;;;;;;5124129;27;20551;-66
2021/05/10 08:19:51;;;;;;;1.50;1.30;;;20.80;1.00;;;;;;5123829;28;20463;-66
2021/05/10 08:22:17;;;;;;;2.43;1.90;;;20.90;1.00;;;;;;5121770;28;20471;-64
2021/05/10 08:24:43;;;;;;;2.87;2.13;;;21.00;1.00;;;;;;5120301;28;20460;-64
2021/05/10 08:27:10;;;;;;;2.57;1.70;;;21.10;1.00;;;;;;5119082;28;20463;-64
2021/05/10 08:29:42;;;;;;;3.07;1.90;;;21.30;1.00;;;;;;5120610;28;20463;-65
2021/05/10 08:32:08;;;;;;;1.87;1.60;;;21.40;1.00;;;;;;5121147;28;20872;-65
2021/05/10 08:34:34;;;;;;;5.63;2.00;;;21.50;1.00;;;;;;5119190;28;20463;-65
2021/05/10 08:37:00;;;;;;;2.50;2.13;;;21.60;1.00;;;;;;5118983;28;20464;-63
2021/05/10 08:39:27;;;;;;;3.40;1.73;;;21.70;1.00;;;;;;5119094;28;20463;-64
2021/05/10 08:41:57;;;;;;;2.23;1.80;;;21.80;1.00;;;;;;5119175;28;20453;-64
2021/05/10 08:44:25;;;;;;;7.23;1.90;;;21.90;1.00;;;;;;5118822;28;20848;-66
2021/05/10 08:46:53;;;;;;;2.70;1.70;;;22.00;1.00;;;;;;5118871;27;20452;-63
2021/05/10 08:49:21;;;;;;;2.10;1.90;;;22.10;1.00;;;;;;5118208;28;20509;-64
2021/05/10 08:51:48;;;;;;;2.77;1.60;;;22.20;1.00;;;;;;5118154;28;20480;-63
2021/05/10 08:54:18;;;;;;;2.10;1.90;;;22.20;1.00;;;;;;5119086;28;20456;-64
2021/05/10 08:56:45;;;;;;;3.50;1.93;;;22.40;1.00;;;;;;5118594;28;20479;-66
2021/05/10 08:59:15;;;;;;;1.90;1.70;;;22.50;1.00;;;;;;5122191;28;20460;-67
2021/05/10 09:01:52;;;;;;;4.40;2.03;;;22.50;1.00;;;;;;5126747;28;20896;-67
2021/05/10 09:04:31;;;;;;;3.70;1.83;;;22.60;1.00;;;;;;5126135;28;20459;-67
2021/05/10 09:07:18;;;;;;;2.40;2.10;;;22.80;1.00;;;;;;5120835;28;20865;-65
2021/05/10 09:09:54;;;;;;;3.30;2.10;;;22.90;1.00;;;;;;5119922;28;20463;-65
2021/05/10 09:12:22;;;;;;;2.57;1.80;;;22.90;1.00;;;;;;5119838;28;20896;-65
2021/05/10 09:14:49;;;;;;;2.33;1.90;;;22.90;1.00;;;;;;5119863;28;20924;-65
2021/05/10 09:17:16;;;;;;;2.07;1.87;;;23.00;1.00;;;;;;5120290;27;20456;-65
2021/05/10 09:19:54;;;;;;;5.67;2.17;;;23.00;1.00;;;;;;5121832;28;20452;-64
2021/05/10 09:22:21;;;;;;;3.30;1.80;;;23.10;1.00;;;;;;5120664;28;20508;-65
2021/05/10 09:24:49;;;;;;;5.27;2.20;;;23.20;1.00;;;;;;5120128;28;20452;-65
2021/05/10 09:27:22;;;;;;;2.17;2.03;;;23.30;1.00;;;;;;5120723;28;20852;-65
2021/05/10 09:29:49;;;;;;;4.10;1.70;;;23.50;1.00;;;;;;5120553;28;20492;-64
2021/05/10 09:32:29;;;;;;;3.63;2.17;;;23.50;1.00;;;;;;5120018;28;20491;-65
2021/05/10 09:35:30;;;;;;;9.20;2.30;;;23.50;1.00;;;;;;5120501;28;20772;-65
2021/05/10 09:38:07;;;;;;;3.43;2.00;;;23.70;1.00;;;;;;5058167;28;20461;-65
2021/05/10 09:40:53;;;;;;;5.97;1.70;;;23.60;1.00;;;;;;5058144;28;20443;-65
2021/05/10 09:43:22;;;;;;;3.10;2.20;;;23.70;1.00;;;;;;5098075;28;20477;-65
2021/05/10 09:45:50;;;;;;;2.70;1.90;;;23.70;1.00;;;;;;5118965;28;20457;-64
2021/05/10 09:48:18;;;;;;;2.53;2.30;;;23.70;1.00;;;;;;5118140;28;20453;-65
2021/05/10 09:50:48;;;;;;;5.67;1.90;;;23.80;1.00;;;;;;5118554;28;20477;-64
2021/05/10 09:53:28;;;;;;;1.90;1.80;;;23.70;1.00;;;;;;5117582;28;20932;-65
2021/05/10 09:55:56;;;;;;;3.83;1.77;;;23.80;1.00;;;;;;5118789;28;20443;-65
2021/05/10 09:58:23;;;;;;;2.27;2.07;;;23.90;1.00;;;;;;5118568;28;20456;-66
2021/05/10 10:00:55;;;;;;;2.00;1.60;;;24.00;1.00;;;;;;5118456;27;20947;-66
2021/05/10 10:03:35;;;;;;;2.50;2.07;;;24.10;1.00;;;;;;5118793;28;20456;-65
2021/05/10 10:06:05;;;;;;;2.10;1.57;;;24.20;1.00;;;;;;5119086;28;20440;-65
2021/05/10 10:08:31;;;;;;;2.20;1.80;;;24.30;1.00;;;;;;5118987;28;20539;-65
2021/05/10 10:10:59;;;;;;;8.63;2.77;;;24.50;1.00;;;;;;5118771;28;20476;-64
2021/05/10 10:13:27;;;;;;;2.77;1.77;;;24.70;1.00;;;;;;5119576;28;20463;-65
2021/05/10 10:15:56;;;;;;;2.30;2.10;;;24.80;1.00;;;;;;5118964;28;20488;-64
2021/05/10 10:18:23;;;;;;;3.10;2.50;;;24.90;1.00;;;;;;5119310;28;20916;-65
2021/05/10 10:20:51;;;;;;;3.93;2.27;;;25.00;1.00;;;;;;5118949;28;20452;-65
2021/05/10 10:23:20;;;;;;;8.70;2.30;;;25.10;1.00;;;;;;5118962;28;20464;-65
2021/05/10 10:25:47;;;;;;;2.30;2.10;;;25.20;1.00;;;;;;5119376;28;20456;-64
2021/05/10 10:28:16;;;;;;;2.70;2.50;;;25.30;1.00;;;;;;5119517;28;20463;-65
2021/05/10 10:30:47;;;;;;;2.93;2.30;;;25.30;1.00;;;;;;5119045;28;20859;-64
2021/05/10 10:33:21;;;;;;;2.90;2.00;;;25.40;1.00;;;;;;5119217;28;20436;-64
2021/05/10 10:35:48;;;;;;;2.40;2.20;;;25.50;1.00;;;;;;5122425;28;20437;-65
2021/05/10 10:38:30;;;;;;;4.37;2.10;;;25.60;1.00;;;;;;5123921;28;20784;-65
2021/05/10 10:41:21;;;;;;;6.20;2.33;;;25.80;1.00;;;;;;5123491;28;20433;-64
2021/05/10 10:43:48;;;;;;;2.47;1.97;;;25.80;1.00;;;;;;5121989;28;20736;-64
2021/05/10 10:46:29;;;;;;;2.33;2.13;;;25.70;1.00;;;;;;5123174;28;20925;-64
2021/05/10 10:49:00;;;;;;;2.17;1.87;;;25.80;1.00;;;;;;5120625;28;20474;-64
2021/05/10 10:51:49;;;;;;;2.33;2.13;;;25.90;1.00;;;;;;5118978;28;20518;-65
2021/05/10 10:54:21;;;;;;;3.10;2.00;;;26.10;1.00;;;;;;5119019;28;20463;-64
2021/05/10 10:56:49;;;;;;;4.50;1.90;;;26.20;1.00;;;;;;5119287;28;20436;-65
2021/05/10 10:59:42;;;;;;;3.00;2.00;;;26.30;1.00;;;;;;5118248;28;20945;-64
2021/05/10 11:02:21;;;;;;;5.20;1.87;;;26.40;1.00;;;;;;5118165;28;20448;-64
2021/05/10 11:05:09;;;;;;;1.87;1.60;;;26.40;1.00;;;;;;5118432;28;20452;-64
2021/05/10 11:07:49;;;;;;;4.63;2.20;;;26.40;1.00;;;;;;5121007;28;20904;-64
2021/05/10 11:10:42;;;;;;;3.13;1.97;;;26.50;1.00;;;;;;5119571;28;20479;-65
2021/05/10 11:13:08;;;;;;;6.50;2.23;;;26.60;1.00;;;;;;5120195;28;20984;-64
2021/05/10 11:15:48;;;;;;;2.87;1.83;;;26.90;1.00;;;;;;5120549;28;20471;-65
2021/05/10 11:18:45;;;;;;;4.63;2.10;;;27.40;1.00;;;;;;5119768;28;20463;-65
2021/05/10 11:21:40;;;;;;;3.10;1.80;;;28.20;1.00;;;;;;5120977;28;20441;-65
2021/05/10 11:24:11;;;;;;;4.23;2.03;;;29.50;1.00;;;;;;5118444;28;20456;-65
2021/05/10 11:26:40;;;;;;;5.93;1.80;;;30.60;1.00;;;;;;5118640;28;20437;-64
2021/05/10 11:29:08;;;;;;;3.00;1.70;;;31.50;1.00;;;;;;5119583;28;20453;-65
2021/05/10 11:31:37;;;;;;;2.27;1.90;;;32.00;1.00;;;;;;5119233;28;20488;-65
2021/05/10 11:34:11;;;;;;;2.23;1.77;;;32.20;1.00;;;;;;5116833;28;20456;-65
2021/05/10 11:36:47;;;;;;;1.90;1.70;;;31.90;1.00;;;;;;5116993;28;20489;-64
2021/05/10 11:39:20;;;;;;;2.20;1.57;;;31.50;1.00;;;;;;5117667;28;20450;-64
2021/05/10 11:41:48;;;;;;;2.80;1.67;;;31.10;1.00;;;;;;5115925;28;20425;-65
2021/05/10 11:44:22;;;;;;;1.80;1.70;;;31.30;1.00;;;;;;5117016;28;20468;-64
2021/05/10 11:46:50;;;;;;;2.17;1.80;;;31.40;1.00;;;;;;5116988;28;20452;-65
2021/05/10 11:49:34;;;;;;;1.73;1.63;;;31.70;1.00;;;;;;5117549;28;20448;-64
2021/05/10 11:52:02;;;;;;;3.07;1.63;;;32.20;1.00;;;;;;5116023;28;20904;-65
2021/05/10 11:54:29;;;;;;;1.70;1.60;;;32.50;1.00;;;;;;5115499;28;20452;-63
2021/05/10 11:57:00;;;;;;;5.30;2.00;;;33.20;1.00;;;;;;5117512;28;20484;-64
2021/05/10 11:59:42;;;;;;;2.33;1.60;;;33.80;1.00;;;;;;5122346;28;20470;-64
2021/05/10 12:02:21;;;;;;;5.10;2.00;;;34.20;1.00;;;;;;5122456;28;20478;-65
2021/05/10 12:04:49;;;;;;;2.60;1.90;;;34.30;1.00;;;;;;5121046;28;20466;-65
2021/05/10 12:07:17;;;;;;;3.60;1.90;;;34.40;1.00;;;;;;5120836;28;20832;-65
2021/05/10 12:09:49;;;;;;;2.93;1.70;;;34.40;1.00;;;;;;5120456;28;20463;-65
2021/05/10 12:12:33;;;;;;;2.07;1.47;;;34.60;1.00;;;;;;5121653;28;20460;-64
2021/05/10 12:15:08;;;;;;;1.63;1.53;;;34.30;1.00;;;;;;5122382;28;20420;-64
2021/05/10 12:17:35;;;;;;;2.83;1.90;;;34.50;1.00;;;;;;5127066;28;20450;-65
2021/05/10 12:20:05;;;;;;;3.20;2.27;;;34.60;1.00;;;;;;5121510;28;20462;-65
2021/05/10 12:22:34;;;;;;;4.60;1.73;;;34.20;1.00;;;;;;5119196;28;20460;-64
2021/05/10 12:25:04;;;;;;;2.47;1.80;;;34.30;1.00;;;;;;5118616;28;20456;-64
2021/05/10 12:27:36;;;;;;;1.70;1.50;;;34.50;1.00;;;;;;5118402;28;20905;-64
2021/05/10 12:30:12;;;;;;;2.07;1.70;;;34.90;1.00;;;;;;5118587;28;20436;-65
2021/05/10 12:32:39;;;;;;;3.23;1.90;;;35.60;1.00;;;;;;5118681;28;20529;-65
2021/05/10 12:35:06;;;;;;;1.93;1.50;;;36.40;1.00;;;;;;5118675;28;20448;-65
2021/05/10 12:37:32;;;;;;;1.97;1.53;;;37.10;1.00;;;;;;5119579;28;20452;-64
2021/05/10 12:40:07;;;;;;;6.90;1.80;;;38.00;1.00;;;;;;5120058;28;20480;-65
2021/05/10 12:42:35;;;;;;;3.50;1.80;;;38.40;1.00;;;;;;5119215;28;20505;-66
2021/05/10 12:45:04;;;;;;;3.20;1.50;;;37.80;1.00;;;;;;5122382;28;20448;-67
2021/05/10 12:47:52;;;;;;;2.33;1.60;;;37.70;1.00;;;;;;5127394;28;20452;-67
2021/05/10 12:50:38;;;;;;;1.60;1.40;;;38.00;1.00;;;;;;5122271;28;20472;-66
2021/05/10 12:53:05;;;;;;;2.40;2.20;;;38.10;1.00;;;;;;5126309;28;20525;-67
2021/05/10 12:55:33;;;;;;;2.33;1.43;;;37.60;1.00;;;;;;5126643;28;20457;-67
2021/05/10 12:58:17;;;;;;;2.83;2.20;;;37.80;1.00;;;;;;5125844;28;20473;-67
2021/05/10 13:00:43;;;;;;;2.13;1.60;;;37.90;1.00;;;;;;5126511;28;20448;-67
2021/05/10 13:03:26;;;;;;;4.13;1.77;;;37.40;1.00;;;;;;5119619;28;20452;-65
2021/05/10 13:05:52;;;;;;;6.20;1.70;;;36.70;1.00;;;;;;5117929;28;20746;-66
2021/05/10 13:08:37;;;;;;;2.23;1.60;;;36.10;1.00;;;;;;5118291;28;20457;-65
2021/05/10 13:11:03;;;;;;;2.27;1.70;;;36.10;1.00;;;;;;5118714;28;20916;-65